Latest Weather Observations for Gunnedah Airport

IDN60801

Issued at 8:05 pm EST Saturday 30 August 2014 (issued every 30 minutes, with the page automatically refreshed every 10 minutes)

About weather observations | Map of weather stations | Latest weather observations for NSW | Other Formats
Station Details ID: 055202 Name: GUNNEDAH AIRPORT AWS Lat: -30.95 Lon: 150.25 Height: 262.57 m
Data from the previous 72 hours. | See also: Recent months at Gunnedah Airport
Date/Time
EST
Temp
°C
App
Temp
°C
Dew
Point
Rel
Hum
%
Delta-T
°C
Wind Press
QNH
hPa
Press
MSL
hPa
Rain
since 9 am
mm
Dir
 
Spd
km/h
Gust
km/h
Spd
kts
Gust
kts
30/08:00pm 13.9 9.5 8.9 72 2.6 SSE 22 30 12 16 1021.0 1021.2 0.0
30/07:30pm 12.4 10.3 8.1 75 2.1 SE 9 15 5 8 1020.9 - 0.0
30/07:00pm 12.4 10.5 7.5 72 2.4 E 7 13 4 7 1020.7 1020.9 0.0
30/06:30pm 13.8 11.8 8.6 71 2.6 E 9 13 5 7 1020.5 - 0.0
30/06:00pm 14.3 12.8 8.3 67 3.0 E 6 11 3 6 1020.4 1020.6 0.0
30/05:30pm 15.3 12.1 8.5 64 3.5 SE 15 20 8 11 1020.3 - 0.0
30/05:00pm 16.8 12.3 8.5 58 4.3 S 22 28 12 15 1020.3 1020.5 0.0
30/04:30pm 17.7 13.6 8.8 56 4.7 S 20 24 11 13 1020.1 - 0.0
30/04:00pm 18.2 13.8 7.6 50 5.4 S 20 30 11 16 1020.1 1020.3 0.0
30/03:30pm 18.7 14.1 8.1 50 5.5 SSE 22 30 12 16 1020.2 - 0.0
30/03:00pm 18.6 13.7 8.3 51 5.4 SSE 24 33 13 18 1020.2 1020.4 0.0
30/02:30pm 18.3 14.2 8.8 54 5.0 SSE 20 30 11 16 1020.5 - 0.0
30/02:00pm 18.0 13.1 8.3 53 5.0 S 24 35 13 19 1020.8 1021.0 0.0
30/01:30pm 18.2 12.9 8.5 53 5.1 SSE 26 33 14 18 1021.0 - 0.0
30/01:00pm 17.7 12.5 8.8 56 4.6 SSE 26 35 14 19 1021.3 1021.5 0.0
30/12:30pm 17.3 12.7 8.2 55 4.7 SSE 22 30 12 16 1021.7 - 0.0
30/12:00pm 16.9 13.2 7.8 55 4.6 SSE 17 28 9 15 1022.4 1022.5 0.0
30/11:30am 15.8 12.6 7.0 56 4.4 SSE 13 24 7 13 1022.8 - 0.0
30/11:00am 16.3 12.2 7.8 57 4.3 S 19 26 10 14 1023.3 1023.5 0.0
30/10:30am 15.1 11.8 7.9 62 3.6 SE 15 24 8 13 1023.6 - 0.0
30/10:00am 14.7 11.5 6.8 59 3.9 S 13 19 7 10 1023.8 1024.0 0.0
30/09:30am 13.4 10.7 5.6 59 3.7 SE 9 15 5 8 1023.9 - 0.0
30/08:30am 10.6 9.8 6.4 75 2.0 CALM 0 0 0 0 1023.7 - 0.0
30/08:00am 9.1 8.3 6.4 83 1.3 CALM 0 0 0 0 1023.8 1024.0 0.0
30/07:30am 6.7 5.7 5.7 93 0.5 CALM 0 0 0 0 1023.8 - 0.0
30/07:00am 5.3 4.1 4.4 94 0.4 CALM 0 0 0 0 1023.6 1023.8 0.0
30/06:30am 3.2 1.6 2.2 93 0.4 CALM 0 0 0 0 1023.5 - 0.0
30/06:00am 2.5 0.7 1.3 92 0.5 ENE 0 0 0 0 1022.9 1023.0 0.0
30/05:30am 2.3 0.4 0.8 90 0.6 CALM 0 0 0 0 1022.5 - 0.0
30/05:00am 2.9 1.1 1.4 90 0.6 CALM 0 0 0 0 1022.3 1022.4 0.0
30/04:30am 3.8 2.2 2.5 91 0.5 CALM 0 0 0 0 1022.4 - 0.0
30/04:00am 2.6 0.7 0.5 86 0.8 CALM 0 0 0 0 1022.5 1022.6 0.0
30/03:30am 5.2 2.4 3.2 87 0.8 ENE 7 9 4 5 1022.7 - 0.0
30/03:00am 6.3 3.0 4.3 87 0.9 ESE 11 13 6 7 1022.6 1022.7 0.0
30/02:30am 5.1 1.8 2.6 84 1.0 E 9 11 5 6 1022.9 - 0.0
30/02:00am 7.2 3.8 4.0 80 1.4 SE 11 15 6 8 1022.7 1022.8 0.0
30/01:30am 7.4 3.7 4.5 82 1.3 SE 13 17 7 9 1022.9 - 0.0
30/01:00am 8.3 5.1 5.1 80 1.4 SE 11 15 6 8 1023.3 1023.5 0.0
30/12:30am 8.8 6.1 5.4 79 1.6 SE 9 13 5 7 1023.7 - 0.0
30/12:00am 6.7 4.7 4.4 85 1.0 ESE 4 7 2 4 1023.8 1024.0 0.0
 
Date/Time
EST
Temp
°C
App
Temp
°C
Dew
Point
Rel
Hum
%
Delta-T
°C
Wind Press
QNH
hPa
Press
MSL
hPa
Rain
since 9 am
mm
Dir
 
Spd
km/h
Gust
km/h
Spd
kts
Gust
kts
29/11:30pm 7.7 4.8 4.5 80 1.4 SE 9 13 5 7 1023.8 - 0.0
29/11:00pm 7.8 4.9 4.6 80 1.4 SE 9 11 5 6 1023.8 1024.0 0.0
29/10:30pm 7.2 3.8 3.8 79 1.5 S 11 13 6 7 1023.9 - 0.0
29/10:00pm 6.7 2.8 3.3 79 1.4 SSW 13 15 7 8 1023.8 1024.0 0.0
29/09:30pm 8.1 5.2 4.5 78 1.6 SSW 9 11 5 6 1023.6 - 0.0
29/09:00pm 6.8 4.3 3.6 80 1.4 S 6 9 3 5 1023.5 1023.7 0.0
29/08:30pm 8.9 7.8 4.9 76 1.8 CALM 0 0 0 0 1023.6 - 0.0
29/08:00pm 9.8 8.8 5.4 74 2.0 CALM 0 0 0 0 1023.5 1023.7 0.0
29/07:30pm 9.0 7.7 4.0 71 2.2 CALM 0 0 0 0 1023.5 - 0.0
29/07:00pm 11.1 9.9 4.6 64 3.0 CALM 0 0 0 0 1023.2 1023.4 0.0
29/06:30pm 13.3 10.8 4.7 56 4.0 SE 7 9 4 5 1023.0 - 0.0
29/06:00pm 12.6 9.0 4.8 59 3.6 SE 13 17 7 9 1022.8 1022.9 0.0
29/05:30pm 13.6 9.6 4.7 55 4.2 SSE 15 20 8 11 1022.6 - 0.0
29/05:00pm 15.9 11.0 4.3 46 5.5 SE 19 24 10 13 1022.4 1022.5 0.0
29/04:30pm 16.8 11.9 4.2 43 6.0 SSE 19 24 10 13 1022.3 - 0.0
29/04:00pm 16.4 10.9 4.1 44 5.8 SE 22 30 12 16 1022.4 1022.5 0.0
29/03:30pm 17.1 11.7 4.4 43 6.1 SE 22 30 12 16 1022.4 - 0.0
29/03:00pm 16.8 11.5 4.8 45 5.8 SSE 22 33 12 18 1022.5 1022.6 0.0
29/02:30pm 18.3 13.0 5.2 42 6.4 S 22 35 12 19 1022.8 - 0.0
29/02:00pm 18.3 12.9 4.5 40 6.6 S 22 33 12 18 1022.9 1023.0 0.0
29/01:30pm 17.2 12.0 3.5 40 6.4 SSE 20 39 11 21 1023.3 - 0.0
29/01:00pm 16.3 10.8 4.0 44 5.8 SE 22 30 12 16 1024.0 1024.2 0.0
29/12:30pm 16.7 11.9 5.6 48 5.4 S 20 28 11 15 1024.4 - 0.0
29/12:00pm 16.2 10.8 4.6 46 5.5 SSE 22 30 12 16 1024.9 1025.1 0.0
29/11:30am 15.3 11.2 6.3 55 4.4 SE 17 26 9 14 1025.4 - 0.0
29/11:00am 15.3 10.6 6.1 54 4.5 SE 20 28 11 15 1025.9 1026.1 0.0
29/10:30am 13.7 8.7 4.6 54 4.3 SSE 20 30 11 16 1026.3 - 0.0
29/10:00am 14.2 10.1 6.1 58 3.9 SE 17 30 9 16 1026.4 1026.6 0.0
29/09:30am 13.5 10.0 7.1 65 3.2 SE 15 19 8 10 1026.6 - 0.0
29/09:00am 12.3 9.2 7.2 71 2.5 SE 13 17 7 9 1026.7 1026.9 0.0
29/08:30am 10.9 7.7 6.8 76 2.0 SE 13 15 7 8 1026.8 - 0.0
29/08:00am 9.5 6.5 5.9 78 1.7 SE 11 13 6 7 1026.6 1026.8 0.0
29/07:30am 8.4 5.4 5.9 84 1.2 SE 11 13 6 7 1026.3 - 0.0
29/07:00am 4.9 2.2 3.6 91 0.5 SE 7 9 4 5 1025.9 1026.1 0.0
29/06:30am 2.9 -1.4 1.3 89 0.6 SE 13 15 7 8 1025.5 - 0.0
29/06:00am 4.7 0.8 3.5 92 0.5 SE 13 15 7 8 1025.4 1025.6 0.0
29/05:30am 4.2 1.3 2.4 88 0.7 NE 7 9 4 5 1025.2 - 0.0
29/05:00am 7.0 3.2 4.0 81 1.3 SSE 13 17 7 9 1024.9 1025.1 0.0
29/04:30am 7.7 4.1 4.8 82 1.3 SSE 13 19 7 10 1024.8 - 0.0
29/04:00am 7.9 3.5 4.8 81 1.4 SE 17 20 9 11 1024.9 1025.1 0.0
29/03:30am 7.4 3.4 4.7 83 1.2 SSE 15 17 8 9 1025.0 - 0.0
29/03:00am 7.3 2.9 4.6 83 1.2 SSE 17 20 9 11 1025.1 1025.3 0.0
29/02:30am 7.4 3.7 4.5 82 1.3 ESE 13 17 7 9 1025.0 - 0.0
29/02:00am 8.2 3.3 5.1 81 1.4 SE 20 24 11 13 1025.1 1025.3 0.0
29/01:30am 9.0 3.8 5.4 78 1.7 SSE 22 26 12 14 1025.2 - 0.0
29/01:00am 8.5 4.5 5.1 79 1.5 ESE 15 19 8 10 1025.5 1025.7 0.0
29/12:30am 8.6 5.3 4.8 77 1.7 ESE 11 15 6 8 1025.5 - 0.0
29/12:00am 9.1 5.5 4.9 75 1.9 ESE 13 20 7 11 1025.6 1025.8 0.0
 
Date/Time
EST
Temp
°C
App
Temp
°C
Dew
Point
Rel
Hum
%
Delta-T
°C
Wind Press
QNH
hPa
Press
MSL
hPa
Rain
since 9 am
mm
Dir
 
Spd
km/h
Gust
km/h
Spd
kts
Gust
kts
28/11:30pm 10.3 7.1 5.1 70 2.4 SE 11 19 6 10 1025.7 - 0.0
28/11:00pm 10.6 6.7 5.4 70 2.4 SSE 15 20 8 11 1025.7 1025.9 0.0
28/10:30pm 11.3 7.1 5.6 68 2.7 S 17 24 9 13 1025.6 - 0.0
28/10:00pm 11.8 6.7 5.9 67 2.8 SSE 22 32 12 17 1025.9 1026.1 0.0
28/09:30pm 12.3 6.9 6.4 67 2.8 SSE 24 32 13 17 1025.8 - 0.0
28/09:00pm 12.7 7.0 6.7 67 2.9 S 26 35 14 19 1025.5 1025.7 0.0
28/08:30pm 13.1 6.6 6.7 65 3.1 SSE 30 41 16 22 1025.1 - 0.0
28/08:00pm 13.2 7.6 7.0 66 3.0 S 26 37 14 20 1025.0 1025.2 0.0
28/07:40pm 13.6 7.6 6.9 64 3.3 S 28 46 15 25 1024.7 - 0.0
28/07:30pm 13.1 6.9 6.2 63 3.3 S 28 33 15 18 1024.6 - 0.0
28/07:00pm 13.9 7.2 5.8 58 3.9 S 30 39 16 21 1024.4 1024.6 0.0
28/06:30pm 14.2 8.1 6.6 60 3.7 S 28 37 15 20 1024.2 - 0.0
28/06:00pm 14.8 8.7 6.4 57 4.1 S 28 41 15 22 1023.9 1024.1 0.0
28/05:30pm 15.8 9.9 5.7 51 4.9 S 26 33 14 18 1023.6 - 0.0
28/05:00pm 16.0 9.8 6.2 52 4.8 S 28 35 15 19 1023.2 1023.4 0.0
28/04:30pm 16.7 11.4 6.8 52 5.0 S 24 32 13 17 1022.8 - 0.0
28/04:00pm 16.8 10.5 7.4 54 4.7 SSE 30 43 16 23 1022.4 1022.5 0.0
28/03:30pm 18.2 11.2 7.0 48 5.7 S 33 43 18 23 1022.1 - 0.0
28/03:00pm 18.9 11.9 6.1 43 6.4 SSE 32 41 17 22 1022.0 1022.2 0.0
28/02:30pm 19.0 12.8 6.1 43 6.5 SSE 28 37 15 20 1022.0 - 0.0
28/02:00pm 18.9 12.5 7.0 46 6.0 S 30 41 16 22 1021.9 1022.1 0.0
28/01:30pm 17.8 11.3 6.7 48 5.6 SSE 30 43 16 23 1022.3 - 0.0
28/01:00pm 17.4 11.6 8.0 54 4.8 SSE 28 41 15 22 1022.4 1022.5 0.0
28/12:30pm 18.2 12.2 8.7 54 5.0 SSE 30 43 16 23 1022.7 - 0.0
28/12:00pm 17.6 11.7 9.0 57 4.5 SSE 30 41 16 22 1023.1 1023.2 0.0
28/11:30am 17.0 10.8 9.2 60 4.1 SSE 32 43 17 23 1023.5 - 0.0
28/11:00am 17.5 11.8 9.9 61 4.0 SSE 30 46 16 25 1023.5 1023.7 0.0
28/10:30am 16.4 10.0 8.6 60 4.0 SSE 32 41 17 22 1023.5 - 0.0
28/10:00am 16.1 10.3 9.3 64 3.5 SSE 30 46 16 25 1023.6 1023.8 0.0
28/09:30am 15.5 9.7 9.4 67 3.2 SSE 30 39 16 21 1023.5 - 0.0
28/09:00am 14.8 9.4 9.4 70 2.8 SSE 28 39 15 21 1023.4 1023.6 0.4
28/08:30am 13.9 8.3 8.7 71 2.7 SSE 28 39 15 21 1023.1 - 0.4
28/08:00am 13.1 7.5 8.6 74 2.3 SSE 28 37 15 20 1022.9 1023.0 0.4
28/07:30am 12.2 6.1 8.3 77 2.0 S 30 41 16 22 1022.5 - 0.4
28/07:00am 11.4 5.6 7.9 79 1.7 S 28 35 15 19 1022.1 1022.3 0.4
28/06:30am 10.8 5.7 7.7 81 1.5 S 24 33 13 18 1022.0 - 0.4
28/06:00am 10.7 5.5 7.4 80 1.6 S 24 32 13 17 1021.6 1021.8 0.4
28/05:30am 10.5 5.7 7.2 80 1.6 S 22 30 12 16 1021.3 - 0.4
28/05:00am 10.8 5.6 7.1 78 1.8 S 24 32 13 17 1021.3 1021.5 0.4
28/04:30am 10.8 5.6 7.1 78 1.8 S 24 35 13 19 1021.1 - 0.4
28/04:00am 10.4 5.4 6.5 77 1.8 S 22 28 12 15 1021.1 1021.3 0.4
28/03:30am 10.5 5.9 6.6 77 1.9 S 20 30 11 16 1021.1 - 0.4
28/03:00am 11.0 5.6 6.4 73 2.2 S 24 35 13 19 1021.2 1021.4 0.4
28/02:30am 10.9 4.7 6.1 72 2.3 SSE 28 39 15 21 1021.0 - 0.4
28/02:00am 11.1 4.6 6.5 73 2.2 S 30 35 16 19 1021.1 1021.3 0.4
28/01:30am 11.1 5.8 6.6 74 2.2 S 24 32 13 17 1021.6 - 0.4
28/01:00am 11.7 6.1 7.2 74 2.2 S 26 35 14 19 1021.8 1022.0 0.4
28/12:30am 11.7 6.2 7.4 75 2.1 S 26 35 14 19 1021.9 - 0.4
28/12:00am 11.9 6.0 7.6 75 2.1 S 28 43 15 23 1021.9 1022.1 0.4
 
Date/Time
EST
Temp
°C
App
Temp
°C
Dew
Point
Rel
Hum
%
Delta-T
°C
Wind Press
QNH
hPa
Press
MSL
hPa
Rain
since 9 am
mm
Dir
 
Spd
km/h
Gust
km/h
Spd
kts
Gust
kts
27/11:30pm 12.2 5.1 7.9 75 2.1 S 35 48 19 26 1021.7 - 0.4
27/11:00pm 12.3 6.1 7.8 74 2.2 SSE 30 43 16 23 1021.9 1022.1 0.4
27/10:30pm 12.4 5.8 7.9 74 2.2 SSE 32 46 17 25 1022.1 - 0.4
27/10:00pm 12.9 6.9 8.6 75 2.2 SSE 30 41 16 22 1022.3 1022.4 0.4
27/09:30pm 12.5 6.4 8.4 76 2.1 S 30 41 16 22 1021.9 - 0.4
27/09:00pm 12.4 7.5 8.3 76 2.0 S 24 33 13 18 1022.0 1022.2 0.4
27/08:30pm 12.6 6.9 8.3 75 2.2 S 28 35 15 19 1022.1 - 0.4

Other Formats:

Comma delimited format used in spreadsheet applications
http://www.bom.gov.au/fwo/IDN60801/IDN60801.95740.axf

JavaScript Object Notation format (JSON) in row-major order
http://www.bom.gov.au/fwo/IDN60801/IDN60801.95740.json